Relevés horaires Bouveret (Suisse)


Relevés horaires à Bouveret - Dimanche 06 Sept. 2015
Heure UTC1 Température [°C] Vent [km/h] Hum. [%] Pres.4 [hPa] Visi. [Km] Nébu. [octa] Préc.5 [mm] Cond.
2m. Res. Ros. Dir.2 Vit. Moy. Raf.3
23:00 14.4 13.8 7.2 N 11.1 18.5 24.1 62 1024.5(-0.2/3h) -- -- -- --
22:00 14.7 13.6 8.2 N 16.7 16.7 29.6 65 1024.5(0.5/3h) -- -- -- --
21:00 15.2 14.2 7.8 NNO 16.7 35.2 55.6 61 1024.2(1.0/3h) -- -- -- --
20:00 16.0 14.9 7.8 ONO 20.4 24.1 55.6 58 1024.1(1.3/3h) -- -- -- --
19:00 16.5 15.1 7.0 N 29.6 35.2 50.0 53 1023.7(1.0/3h) -- -- -- --
18:00 17.5 16.2 7.7 N 33.3 35.2 44.4 53 1022.8(0.4/3h) -- -- -- --
17:00 18.4 17.7 7.6 N 25.9 25.9 38.9 49 1022.3(-0.1/3h) -- -- -- --
16:00 18.2 18.2 7.5 O 13.0 16.7 24.1 50 1022.3(-0.2/3h) -- -- -- --
15:00 18.3 18.2 7.3 O 14.8 16.7 25.9 49 1022.2(-0.4/3h) -- -- -- --
14:00 17.8 17.5 7.9 O 14.8 16.7 24.1 52 1022.5(-0.4/3h) -- -- -- --
13:00 17.5 17 7.7 O 16.7 16.7 24.1 53 1022.7(-0.6/3h) -- -- -- --
12:00 17.1 16.7 7.1 O 14.8 14.8 20.4 52 1022.8(-0.7/3h) -- -- -- --
11:00 16.5 16.1 7.3 O 13.0 13.0 18.5 54 1023.1(-0.4/3h) -- -- -- --
10:00 15.9 15.6 6.2 ONO 11.1 11.1 16.7 52 1023.6(0.0/3h) -- -- -- --
09:00 14.9 14.9 7.5 O 7.4 7.4 13.0 61 1023.9(0.5/3h) -- -- -- --
08:00 14.5 14.4 7.7 ONO 7.4 7.4 11.1 64 1023.9(0.9/3h) -- -- -- --
07:00 12.4 12.4 6.6 SE 3.7 7.4 9.3 68 1024.1(1.2/3h) -- -- -- --
06:00 10.4 9.6 6.6 SE 7.4 11.1 18.5 77 1024.1(1.0/3h) -- -- -- --
05:00 10.5 9.3 6.5 SE 9.3 9.3 16.7 76 1023.6(0.3/3h) -- -- -- --
04:00 10.2 9 7.4 SE 9.3 11.1 18.5 83 1023.2(-0.1/3h) -- -- -- --
03:00 10.6 9.5 7.2 SE 9.3 9.3 13.0 79 1023.1(-0.3/3h) -- -- -- --
02:00 10.9 10.2 7.6 SE 7.4 9.3 13.0 80 1023.2(0.0/3h) -- -- -- --
01:00 10.9 9.8 8.0 SE 9.3 9.3 13.0 82 1023.2(0.3/3h) -- -- -- --
00:00 11.5 10.9 8.7 SSE 7.4 11.1 16.7 83 1023.2(0.6/3h) -- -- -- --

1 Coordinated Universal Time. Actuellement il est 10:00 locale et 08:00 UTC.

2 Le vent souffle depuis la direction indiquée vers la direction oposée.

3 Les rafales max. sont disponible 40 min après l'heure du relevé.

4 Pour les stations d'altitude (plus de 600m) le géopotentiel du niveau le plus proche de la pression obligatoire est indiqué.

5 Les stations disposant d'un diffuseur peuvent indiquer "trace". Cela signifie que des précipitations ont touchés le sol mais que la quantité est inférieure à 0.1 mm.

Copyright

Les données affichées sur cette page sont la propriété exclusive de Météo Suisse.

Récapitulatif de la journée
Température [°C] Vent [km/h] Ensoleillement4 [h] Precipitations totale5 [mm] Pression [Hpa]
Min1 Max.2 Moy.3 Max. Min Max.
10.2 18.5 16.2 55.6 0 h 0 min 0 1022.2 1024.5

1 Température minimale relevée entre 18:00 UTC la veille et 18:00 UTC le jour donné.

2 Température maximale relevée entre 06:00 UTC le jour donné et 06:00 UTC le lendemain.

3 Vent moyen de la journée basé sur les relevés horaires.

4 Ensoleillement en heures relevé entre 06:00 UTC la veille et 06:00 UTC le jour donné.

5 Précipitations totales tombées entre 06:00 UTC la jour donné et 06:00 UTC le lendemain.

Graphiques horaires